createdAt,value
2022-11-13T00:00:51.448Z,102386.75
2022-11-13T00:03:17.641Z,102384.16
2022-11-13T00:05:43.856Z,102383.06
2022-11-13T00:08:10.086Z,102370.47
2022-11-13T00:10:36.310Z,102374.34
2022-11-13T00:13:02.560Z,102371.06
2022-11-13T00:15:28.781Z,102355.03
2022-11-13T00:17:54.985Z,102347.03
2022-11-13T00:20:21.199Z,102380.00
2022-11-13T00:22:47.396Z,102395.06
2022-11-13T00:25:13.601Z,102408.88
2022-11-13T00:27:39.825Z,102400.16
2022-11-13T00:30:06.291Z,102396.94
2022-11-13T00:32:32.504Z,102392.47
2022-11-13T00:34:58.703Z,102388.81
2022-11-13T00:37:24.945Z,102393.69
2022-11-13T00:39:53.416Z,102399.34
2022-11-13T00:42:23.250Z,102397.75
2022-11-13T00:44:49.458Z,102393.16
2022-11-13T00:47:15.677Z,102393.88
2022-11-13T00:49:41.872Z,102406.81
2022-11-13T00:52:08.076Z,102416.72
2022-11-13T00:54:34.283Z,102426.84
2022-11-13T00:57:00.508Z,102415.56
2022-11-13T00:59:26.709Z,102401.66
2022-11-13T01:01:52.938Z,102395.44
2022-11-13T01:04:19.173Z,102411.97
2022-11-13T01:06:45.442Z,102411.06
2022-11-13T01:09:11.678Z,102408.88
2022-11-13T01:11:37.899Z,102413.13
2022-11-13T01:14:04.099Z,102391.63
2022-11-13T01:16:30.320Z,102392.16
2022-11-13T01:18:56.536Z,102384.09
2022-11-13T01:21:23.599Z,102368.53
2022-11-13T01:23:49.833Z,102363.47
2022-11-13T01:26:16.926Z,102353.88
2022-11-13T01:28:43.181Z,102345.03
2022-11-13T01:31:10.314Z,102378.09
2022-11-13T01:33:36.512Z,102384.66
2022-11-13T01:36:03.743Z,102374.47
2022-11-13T01:38:34.316Z,102387.56
2022-11-13T01:41:02.312Z,102387.00
2022-11-13T01:43:29.461Z,102391.19
2022-11-13T01:45:58.629Z,102388.22
2022-11-13T01:48:26.141Z,102397.59
2022-11-13T01:50:52.582Z,102401.97
2022-11-13T01:53:18.826Z,102399.53
2022-11-13T01:55:45.103Z,102401.13
2022-11-13T01:58:11.312Z,102405.75
2022-11-13T02:00:37.555Z,102393.81
2022-11-13T02:03:03.777Z,102393.88
2022-11-13T02:05:29.997Z,102392.59
2022-11-13T02:07:56.199Z,102377.34
2022-11-13T02:10:22.418Z,102374.75
2022-11-13T02:12:49.679Z,102373.81
2022-11-13T02:15:15.889Z,102386.84
2022-11-13T02:17:42.987Z,102374.75
2022-11-13T02:20:09.330Z,102369.16
2022-11-13T02:22:36.840Z,102369.19
2022-11-13T02:25:03.433Z,102360.59
2022-11-13T02:27:34.357Z,102354.78
2022-11-13T02:30:15.893Z,102350.28
2022-11-13T02:32:43.289Z,102345.75
2022-11-13T02:35:09.490Z,102341.41
2022-11-13T02:37:35.706Z,102337.06
2022-11-13T02:40:01.909Z,102342.44
2022-11-13T02:42:28.111Z,102335.34
2022-11-13T02:44:54.319Z,102327.09
2022-11-13T02:47:20.709Z,102324.34
2022-11-13T02:49:46.919Z,102316.91
2022-11-13T02:52:13.176Z,102315.28
2022-11-13T02:54:39.417Z,102311.41
2022-11-13T02:57:05.637Z,102297.34
2022-11-13T02:59:31.842Z,102290.00
2022-11-13T03:01:58.085Z,102291.34
2022-11-13T03:04:24.305Z,102293.94
2022-11-13T03:06:50.588Z,102283.72
2022-11-13T03:09:16.863Z,102297.59
2022-11-13T03:11:43.489Z,102286.78
2022-11-13T03:14:09.698Z,102294.38
2022-11-13T03:16:35.910Z,102291.63
2022-11-13T03:19:02.391Z,102280.81
2022-11-13T03:21:28.608Z,102278.19
2022-11-13T03:23:54.807Z,102276.25
2022-11-13T03:26:21.029Z,102278.19
2022-11-13T03:28:47.231Z,102277.50
2022-11-13T03:31:13.464Z,102277.66
2022-11-13T03:33:39.664Z,102263.78
2022-11-13T03:36:05.988Z,102284.31
2022-11-13T03:38:32.242Z,102284.97
2022-11-13T03:40:58.436Z,102286.34
2022-11-13T03:43:24.639Z,102299.00
2022-11-13T03:45:50.846Z,102292.78
2022-11-13T03:48:17.135Z,102295.09
2022-11-13T03:50:45.595Z,102290.53
2022-11-13T03:53:12.089Z,102285.06
2022-11-13T03:55:38.296Z,102272.00
2022-11-13T03:58:04.539Z,102275.84
2022-11-13T04:00:30.741Z,102269.53
2022-11-13T04:02:56.957Z,102269.66
2022-11-13T04:05:23.200Z,102272.63
2022-11-13T04:07:49.424Z,102273.84
2022-11-13T04:10:15.645Z,102277.38
2022-11-13T04:12:41.861Z,102275.69
2022-11-13T04:15:08.184Z,102267.81
2022-11-13T04:17:34.385Z,102258.44
2022-11-13T04:20:00.589Z,102267.09
2022-11-13T04:22:26.809Z,102264.03
2022-11-13T04:24:53.020Z,102267.75
2022-11-13T04:27:19.236Z,102257.59
2022-11-13T04:29:45.446Z,102259.41
2022-11-13T04:32:11.661Z,102251.50
2022-11-13T04:34:37.871Z,102246.44
2022-11-13T04:37:04.085Z,102247.09
2022-11-13T04:39:30.292Z,102248.41
2022-11-13T04:41:56.498Z,102242.31
2022-11-13T04:44:22.719Z,102239.66
2022-11-13T04:46:48.917Z,102247.38
2022-11-13T04:49:15.136Z,102245.53
2022-11-13T04:51:41.350Z,102227.22
2022-11-13T04:54:07.553Z,102218.06
2022-11-13T04:56:33.744Z,102221.91
2022-11-13T04:58:59.959Z,102222.84
2022-11-13T05:01:26.180Z,102226.44
2022-11-13T05:03:52.412Z,102218.66
2022-11-13T05:06:18.611Z,102214.00
2022-11-13T05:08:44.821Z,102217.72
2022-11-13T05:11:11.036Z,102221.09
2022-11-13T05:13:37.250Z,102218.75
2022-11-13T05:16:04.231Z,102213.84
2022-11-13T05:18:31.547Z,102221.78
2022-11-13T05:20:57.918Z,102224.72
2022-11-13T05:23:24.143Z,102227.06
2022-11-13T05:25:50.433Z,102230.47
2022-11-13T05:28:16.750Z,102224.63
2022-11-13T05:30:42.945Z,102229.19
2022-11-13T05:33:09.169Z,102229.34
2022-11-13T05:35:35.448Z,102225.59
2022-11-13T05:38:01.766Z,102224.47
2022-11-13T05:40:28.457Z,102219.69
2022-11-13T05:42:55.150Z,102223.06
2022-11-13T05:45:21.526Z,102227.78
2022-11-13T05:47:47.748Z,102238.38
2022-11-13T05:50:14.297Z,102238.00
2022-11-13T05:52:40.489Z,102231.72
2022-11-13T05:55:07.046Z,102225.88
2022-11-13T05:57:33.264Z,102231.44
2022-11-13T05:59:59.485Z,102225.28
2022-11-13T06:02:25.743Z,102219.94
2022-11-13T06:04:56.404Z,102216.56
2022-11-13T06:07:22.912Z,102203.94
2022-11-13T06:09:49.138Z,102188.59
2022-11-13T06:12:15.362Z,102183.13
2022-11-13T06:14:41.569Z,102174.78
2022-11-13T06:17:07.764Z,102159.56
2022-11-13T06:19:37.094Z,102150.00
2022-11-13T06:22:03.302Z,102148.00
2022-11-13T06:24:29.512Z,102136.06
2022-11-13T06:26:55.715Z,102133.28
2022-11-13T06:29:21.923Z,102123.66
2022-11-13T06:31:48.116Z,102115.00
2022-11-13T06:34:14.324Z,102099.28
2022-11-13T06:36:40.520Z,102092.22
2022-11-13T06:39:09.833Z,102083.78
2022-11-13T06:41:37.134Z,102081.69
2022-11-13T06:44:03.677Z,102066.25
2022-11-13T06:46:29.983Z,102055.22
2022-11-13T06:48:56.214Z,102045.94
2022-11-13T06:51:23.524Z,102040.34
2022-11-13T06:53:49.736Z,102038.53
2022-11-13T06:56:15.937Z,102038.97
2022-11-13T06:58:42.205Z,102031.78
2022-11-13T07:01:09.033Z,102031.59
2022-11-13T07:03:35.277Z,102027.44
2022-11-13T07:06:04.736Z,102022.94
2022-11-13T07:08:31.377Z,102017.78
2022-11-13T07:10:57.787Z,102011.78
2022-11-13T07:13:24.110Z,102014.38
2022-11-13T07:15:50.322Z,102005.28
2022-11-13T07:18:19.084Z,101999.09
2022-11-13T07:20:49.125Z,102002.13
2022-11-13T07:23:15.330Z,102002.94
2022-11-13T07:25:41.548Z,102003.16
2022-11-13T07:28:07.762Z,102010.53
2022-11-13T07:30:33.971Z,102000.78
2022-11-13T07:33:03.406Z,101988.31
2022-11-13T07:35:29.621Z,101996.13
2022-11-13T07:37:56.135Z,101995.41
2022-11-13T07:40:22.339Z,101999.50
2022-11-13T07:42:48.545Z,102002.72
2022-11-13T07:45:14.765Z,101996.56
2022-11-13T07:47:40.972Z,101996.16
2022-11-13T07:50:10.909Z,102000.84
2022-11-13T07:52:37.360Z,101985.22
2022-11-13T07:55:03.595Z,101994.03
2022-11-13T07:57:29.811Z,101984.88
2022-11-13T07:59:56.021Z,101987.88
2022-11-13T08:02:26.299Z,101987.28
2022-11-13T08:04:53.017Z,101986.09
2022-11-13T08:07:19.256Z,101983.13
2022-11-13T08:09:45.533Z,101987.53
2022-11-13T08:12:11.731Z,101986.97
2022-11-13T08:14:37.954Z,101986.16
2022-11-13T08:17:04.163Z,101980.16
2022-11-13T08:19:30.384Z,101984.34
2022-11-13T08:21:56.580Z,101989.00
2022-11-13T08:24:23.716Z,101991.25
2022-11-13T08:26:49.922Z,102001.66
2022-11-13T08:29:16.133Z,101998.66
2022-11-13T08:31:42.342Z,101995.44
2022-11-13T08:34:08.545Z,101989.66
2022-11-13T08:36:34.762Z,101990.47
2022-11-13T08:39:00.963Z,101990.63
2022-11-13T08:41:27.168Z,101990.66
2022-11-13T08:43:53.378Z,101992.06
2022-11-13T08:46:19.589Z,101995.25
2022-11-13T08:48:46.011Z,101997.66
2022-11-13T08:51:12.232Z,101999.91
2022-11-13T08:53:38.432Z,102004.88
2022-11-13T08:56:04.717Z,102005.91
2022-11-13T08:58:31.265Z,102009.09
2022-11-13T09:01:01.213Z,102011.13
2022-11-13T09:03:27.465Z,102012.69
2022-11-13T09:05:53.720Z,102017.34
2022-11-13T09:08:19.929Z,102028.78
2022-11-13T09:10:46.136Z,102025.56
2022-11-13T09:13:12.331Z,102026.16
2022-11-13T09:15:38.880Z,102031.59
2022-11-13T09:18:05.346Z,102038.22
2022-11-13T09:20:33.465Z,102039.00
2022-11-13T09:23:00.234Z,102032.56
2022-11-13T09:25:35.828Z,102040.19
2022-11-13T09:28:03.427Z,102040.63
2022-11-13T09:30:32.945Z,102040.81
2022-11-13T09:32:59.942Z,102053.47
2022-11-13T09:35:26.375Z,102051.84
2022-11-13T09:37:52.611Z,102042.03
2022-11-13T09:40:27.204Z,102054.88
2022-11-13T09:42:53.458Z,102055.06
2022-11-13T09:45:34.345Z,102055.25
2022-11-13T10:10:23.726Z,102077.97
2022-11-13T10:12:51.062Z,102078.53
2022-11-13T10:15:17.266Z,102084.34
2022-11-13T10:18:00.133Z,102084.00
2022-11-13T10:20:39.449Z,102080.59
2022-11-13T10:23:08.448Z,102079.56
2022-11-13T10:25:36.159Z,102081.16
2022-11-13T10:28:21.573Z,102085.56
2022-11-13T10:30:48.942Z,102091.19
2022-11-13T10:33:17.392Z,102102.25
2022-11-13T10:35:55.623Z,102096.81
2022-11-13T10:38:32.083Z,102103.63
2022-11-13T10:41:05.329Z,102106.84
2022-11-13T10:43:31.805Z,102113.88
2022-11-13T10:45:59.070Z,102113.88
2022-11-13T10:48:26.627Z,102107.22
2022-11-13T10:50:57.217Z,102115.06
2022-11-13T10:53:23.429Z,102118.06
2022-11-13T10:55:50.471Z,102114.03
2022-11-13T10:58:17.099Z,102114.03
2022-11-13T11:00:43.411Z,102116.47
2022-11-13T11:03:15.762Z,102119.25
2022-11-13T11:05:51.089Z,102103.41
2022-11-13T11:08:17.478Z,102100.78
2022-11-13T11:10:43.797Z,102098.56
2022-11-13T11:13:10.936Z,102090.13
2022-11-13T11:15:42.251Z,102080.31
2022-11-13T11:18:17.689Z,102079.31
2022-11-13T11:20:47.756Z,102074.09
2022-11-13T11:23:13.929Z,102074.09
2022-11-13T11:26:00.663Z,102076.53
2022-11-13T11:28:29.143Z,102070.50
2022-11-13T11:30:56.765Z,102064.69
2022-11-13T11:33:28.888Z,102053.06
2022-11-13T11:36:18.415Z,102046.59
2022-11-13T11:38:53.078Z,102034.59
2022-11-13T11:41:20.206Z,102027.16
2022-11-13T11:43:48.495Z,102025.56
2022-11-13T11:46:15.305Z,102021.94
2022-11-13T11:48:41.540Z,102004.28
2022-11-13T11:51:07.697Z,101999.88
2022-11-13T11:53:55.849Z,101996.25
2022-11-13T11:56:23.901Z,101984.22
2022-11-13T11:58:54.886Z,101983.81
2022-11-13T12:01:35.289Z,101974.38
2022-11-13T12:04:16.154Z,101969.34
2022-11-13T12:06:57.644Z,101962.94
2022-11-13T12:09:28.080Z,101960.31
2022-11-13T12:11:54.251Z,101952.13
2022-11-13T12:14:23.284Z,101949.28
2022-11-13T12:17:16.481Z,101941.66
2022-11-13T12:19:49.425Z,101938.25
2022-11-13T12:22:30.842Z,101931.63
2022-11-13T12:24:57.340Z,101922.59
2022-11-13T12:27:35.024Z,101918.97
2022-11-13T12:30:04.352Z,101926.19
2022-11-13T12:32:38.953Z,101917.50
2022-11-13T12:35:09.940Z,101905.44
2022-11-13T12:37:36.148Z,101895.75
2022-11-13T12:40:13.133Z,101896.41
2022-11-13T12:42:41.931Z,101893.00
2022-11-13T12:45:13.905Z,101894.81
2022-11-13T12:47:40.125Z,101892.16
2022-11-13T12:50:19.576Z,101884.09
2022-11-13T12:52:45.799Z,101881.13
2022-11-13T12:55:25.358Z,101878.09
2022-11-13T12:57:51.571Z,101874.69
2022-11-13T13:00:25.448Z,101873.31
2022-11-13T13:03:02.853Z,101868.06
2022-11-13T13:05:35.212Z,101874.69
2022-11-13T13:08:05.432Z,101872.63
2022-11-13T13:10:50.138Z,101868.44
2022-11-13T13:13:34.866Z,101868.22
2022-11-13T13:16:04.338Z,101873.09
2022-11-13T13:18:32.496Z,101872.72
2022-11-13T13:21:07.850Z,101870.25
2022-11-13T13:23:35.079Z,101876.47
2022-11-13T13:26:01.861Z,101870.72
2022-11-13T13:28:28.486Z,101873.56
2022-11-13T13:31:03.561Z,101873.31
2022-11-13T13:33:48.506Z,101876.75
2022-11-13T13:36:44.048Z,101865.25
2022-11-13T13:39:22.050Z,101859.25
2022-11-13T13:41:48.207Z,101862.63
2022-11-13T13:44:26.120Z,101869.66
2022-11-13T13:46:52.333Z,101855.84
2022-11-13T13:49:19.585Z,101858.28
2022-11-13T13:51:46.564Z,101855.84
2022-11-13T13:54:15.074Z,101848.22
2022-11-13T13:56:41.318Z,101850.63
2022-11-13T13:59:13.772Z,101842.38
2022-11-13T14:01:40.025Z,101841.53
2022-11-13T14:04:12.046Z,101832.09
2022-11-13T14:06:46.910Z,101830.72
2022-11-13T14:09:20.164Z,101824.47
2022-11-13T14:11:46.373Z,101819.25
2022-11-13T14:14:22.200Z,101817.66
2022-11-13T14:16:52.415Z,101807.81
2022-11-13T14:19:18.718Z,101801.94
2022-11-13T14:21:45.050Z,101798.91
2022-11-13T14:24:14.232Z,101791.91
2022-11-13T14:26:40.428Z,101793.31
2022-11-13T14:29:11.162Z,101791.47
2022-11-13T14:31:37.531Z,101789.47
2022-11-13T14:34:10.797Z,101791.88
2022-11-13T14:36:37.006Z,101788.88
2022-11-13T14:39:03.250Z,101779.66
2022-11-13T14:41:40.016Z,101781.63
2022-11-13T14:44:06.259Z,101779.22
2022-11-13T14:46:42.532Z,101779.63
2022-11-13T14:49:14.956Z,101773.22
2022-11-13T14:51:41.153Z,101770.75
2022-11-13T14:54:08.929Z,101768.78
2022-11-13T14:56:39.139Z,101760.97
2022-11-13T14:59:19.585Z,101757.13
2022-11-13T15:01:58.249Z,101757.19
2022-11-13T15:04:24.748Z,101747.50
2022-11-13T15:06:51.024Z,101745.16
2022-11-13T15:09:17.371Z,101741.88
2022-11-13T15:11:43.569Z,101725.06
2022-11-13T15:14:13.410Z,101720.03
2022-11-13T15:16:39.617Z,101721.19
2022-11-13T15:19:08.189Z,101714.38
2022-11-13T15:21:34.469Z,101707.59
2022-11-13T15:24:00.716Z,101698.72
2022-11-13T15:26:26.926Z,101694.94
2022-11-13T15:28:53.408Z,101696.69
2022-11-13T15:31:26.784Z,101684.66
2022-11-13T15:33:52.989Z,101676.84
2022-11-13T15:36:19.223Z,101684.69
2022-11-13T15:38:45.432Z,101681.91
2022-11-13T15:41:12.567Z,101671.44
2022-11-13T15:43:39.118Z,101659.81
2022-11-13T15:46:05.332Z,101661.19
2022-11-13T15:48:31.563Z,101655.59
2022-11-13T15:50:57.764Z,101655.97
2022-11-13T15:53:23.972Z,101657.44
2022-11-13T15:55:51.866Z,101647.53
2022-11-13T15:58:18.091Z,101642.19
2022-11-13T16:00:44.300Z,101640.16
2022-11-13T16:03:10.528Z,101628.34
2022-11-13T16:05:36.778Z,101628.34
2022-11-13T16:08:07.789Z,101628.56
2022-11-13T16:10:34.003Z,101629.56
2022-11-13T16:13:00.223Z,101623.53
2022-11-13T16:15:26.428Z,101618.56
2022-11-13T16:17:53.423Z,101614.34
2022-11-13T16:20:19.647Z,101614.53
2022-11-13T16:22:45.895Z,101619.75
2022-11-13T16:25:12.981Z,101605.09
2022-11-13T16:27:39.193Z,101593.47
2022-11-13T16:30:07.219Z,101595.06
2022-11-13T16:32:33.609Z,101593.22
2022-11-13T16:34:59.833Z,101584.00
2022-11-13T16:37:26.047Z,101583.16
2022-11-13T16:39:52.256Z,101585.66
2022-11-13T16:42:18.477Z,101585.66
2022-11-13T16:44:44.741Z,101583.84
2022-11-13T16:47:29.150Z,101569.22
2022-11-13T16:49:55.381Z,101576.47
2022-11-13T16:52:21.589Z,101569.00
2022-11-13T16:54:47.881Z,101567.38
2022-11-13T16:57:14.130Z,101562.56
2022-11-13T16:59:40.400Z,101561.81
2022-11-13T17:02:13.156Z,101561.03
2022-11-13T17:04:39.374Z,101554.34
2022-11-13T17:07:05.605Z,101549.59
2022-11-13T17:09:31.834Z,101546.75
2022-11-13T17:11:58.027Z,101538.94
2022-11-13T17:14:24.233Z,101537.75
2022-11-13T17:16:50.450Z,101536.53
2022-11-13T17:19:16.670Z,101536.75
2022-11-13T17:21:44.458Z,101535.16
2022-11-13T17:24:10.885Z,101534.78
2022-11-13T17:26:37.085Z,101536.56
2022-11-13T17:29:03.305Z,101530.31
2022-11-13T17:31:29.522Z,101533.16
2022-11-13T17:33:56.507Z,101525.91
2022-11-13T17:36:23.072Z,101522.50
2022-11-13T17:38:49.281Z,101519.28
2022-11-13T17:41:15.761Z,101522.16
2022-11-13T17:43:42.088Z,101521.34
2022-11-13T17:46:12.209Z,101515.91
2022-11-13T17:48:38.418Z,101523.75
2022-11-13T17:51:05.450Z,101522.16
2022-11-13T17:53:31.975Z,101522.09
2022-11-13T17:56:01.723Z,101530.63
2022-11-13T17:58:28.114Z,101521.44
2022-11-13T18:00:54.464Z,101523.72
2022-11-13T18:03:20.683Z,101519.91
2022-11-13T18:05:46.904Z,101520.19
2022-11-13T18:08:13.130Z,101523.00
2022-11-13T18:10:39.558Z,101521.44
2022-11-13T18:13:05.999Z,101523.66
2022-11-13T18:15:35.318Z,101523.66
2022-11-13T18:18:01.669Z,101519.63
2022-11-13T18:20:27.925Z,101524.84
2022-11-13T18:22:54.387Z,101526.66
2022-11-13T18:25:20.599Z,101524.59
2022-11-13T18:27:46.882Z,101526.25
2022-11-13T18:30:13.105Z,101528.91
2022-11-13T18:32:39.318Z,101518.25
2022-11-13T18:35:05.621Z,101528.09
2022-11-13T18:37:31.834Z,101527.31
2022-11-13T18:39:58.048Z,101533.50
2022-11-13T18:42:24.387Z,101522.91
2022-11-13T18:44:50.637Z,101532.34
2022-11-13T18:47:16.861Z,101535.56
2022-11-13T18:49:43.072Z,101544.56
2022-11-13T18:52:09.287Z,101540.56
2022-11-13T18:54:35.553Z,101542.22
2022-11-13T18:57:01.837Z,101538.97
2022-11-13T18:59:28.040Z,101540.75
2022-11-13T19:01:54.342Z,101540.97
2022-11-13T19:04:23.293Z,101541.59
2022-11-13T19:06:50.364Z,101536.59
2022-11-13T19:09:16.684Z,101542.78
2022-11-13T19:11:42.922Z,101530.78
2022-11-13T19:14:13.528Z,101534.16
2022-11-13T19:16:39.859Z,101537.53
2022-11-13T19:19:07.057Z,101547.38
2022-11-13T19:21:33.797Z,101542.75
2022-11-13T19:24:00.073Z,101539.34
2022-11-13T19:26:26.320Z,101546.19
2022-11-13T19:28:52.721Z,101555.03
2022-11-13T19:31:19.825Z,101543.03
2022-11-13T19:33:46.085Z,101546.63
2022-11-13T19:36:13.132Z,101546.22
2022-11-13T19:38:39.338Z,101540.81
2022-11-13T19:41:05.620Z,101549.81
2022-11-13T19:43:32.267Z,101556.06
2022-11-13T19:46:01.912Z,101554.84
2022-11-13T19:48:28.162Z,101560.69
2022-11-13T19:50:54.405Z,101562.06
2022-11-13T19:53:20.617Z,101554.69
2022-11-13T19:55:55.983Z,101558.66
2022-11-13T19:58:22.187Z,101561.06
2022-11-13T20:00:48.701Z,101567.94
2022-11-13T20:03:14.914Z,101559.91
2022-11-13T20:05:41.563Z,101563.28
2022-11-13T20:08:07.856Z,101567.94
2022-11-13T20:10:34.053Z,101568.75
2022-11-13T20:13:00.292Z,101566.75
2022-11-13T20:15:26.504Z,101570.38
2022-11-13T20:17:52.731Z,101568.72
2022-11-13T20:20:18.948Z,101572.13
2022-11-13T20:22:45.159Z,101573.56
2022-11-13T20:25:11.374Z,101572.78
2022-11-13T20:27:37.800Z,101576.00
2022-11-13T20:30:04.465Z,101584.06
2022-11-13T20:32:30.676Z,101597.66
2022-11-13T20:34:56.873Z,101594.91
2022-11-13T20:37:23.091Z,101598.69
2022-11-13T20:39:49.312Z,101595.13
2022-11-13T20:42:15.526Z,101602.69
2022-11-13T20:44:41.747Z,101605.75
2022-11-13T20:47:07.975Z,101612.75
2022-11-13T20:49:34.179Z,101604.94
2022-11-13T20:52:00.401Z,101605.16
2022-11-13T20:54:26.605Z,101599.53
2022-11-13T20:56:52.836Z,101608.56
2022-11-13T20:59:19.046Z,101602.56
2022-11-13T21:01:45.380Z,101608.78
2022-11-13T21:04:11.649Z,101611.44
2022-11-13T21:06:38.045Z,101623.22
2022-11-13T21:09:04.343Z,101618.25
2022-11-13T21:11:30.546Z,101611.44
2022-11-13T21:13:56.829Z,101618.66
2022-11-13T21:16:23.038Z,101615.63
2022-11-13T21:18:49.245Z,101622.41
2022-11-13T21:21:19.512Z,101625.06
2022-11-13T21:23:46.146Z,101613.06
2022-11-13T21:26:12.404Z,101617.25
2022-11-13T21:28:38.988Z,101612.06
2022-11-13T21:31:13.340Z,101610.66
2022-11-13T21:33:40.180Z,101613.03
2022-11-13T21:36:07.076Z,101607.25
2022-11-13T21:38:33.302Z,101606.25
2022-11-13T21:41:00.142Z,101622.69
2022-11-13T21:43:26.352Z,101619.28
2022-11-13T21:45:52.546Z,101617.47
2022-11-13T21:48:18.761Z,101623.88
2022-11-13T21:50:45.055Z,101623.47
2022-11-13T21:53:11.592Z,101620.88
2022-11-13T21:55:37.797Z,101626.28
2022-11-13T21:58:04.003Z,101628.28
2022-11-13T22:00:30.207Z,101639.91
2022-11-13T22:02:56.410Z,101631.50
2022-11-13T22:05:22.604Z,101632.72
2022-11-13T22:07:48.802Z,101639.09
2022-11-13T22:10:15.164Z,101640.91
2022-11-13T22:12:41.375Z,101640.53
2022-11-13T22:15:08.110Z,101650.94
2022-11-13T22:17:34.333Z,101664.31
2022-11-13T22:20:00.596Z,101651.31
2022-11-13T22:22:26.831Z,101663.53
2022-11-13T22:24:53.036Z,101669.53
2022-11-13T22:27:19.227Z,101662.34
2022-11-13T22:29:45.437Z,101659.94
2022-11-13T22:32:11.628Z,101667.31
2022-11-13T22:34:37.842Z,101667.75
2022-11-13T22:37:04.054Z,101679.75
2022-11-13T22:39:30.274Z,101678.16
2022-11-13T22:41:56.485Z,101669.75
2022-11-13T22:44:24.323Z,101667.13
2022-11-13T22:46:52.345Z,101666.13
2022-11-13T22:49:18.568Z,101667.31
2022-11-13T22:51:44.765Z,101658.13
2022-11-13T22:54:11.491Z,101657.13
2022-11-13T22:56:38.227Z,101662.91
2022-11-13T22:59:05.047Z,101662.91
2022-11-13T23:01:31.893Z,101663.72
2022-11-13T23:03:59.443Z,101661.31
2022-11-13T23:06:26.261Z,101661.88
2022-11-13T23:08:52.568Z,101649.69
2022-11-13T23:11:19.823Z,101638.28
2022-11-13T23:13:47.087Z,101637.06
2022-11-13T23:16:13.307Z,101636.69
2022-11-13T23:18:39.514Z,101637.47
2022-11-13T23:21:05.922Z,101642.69
2022-11-13T23:23:32.129Z,101629.25
2022-11-13T23:25:58.332Z,101631.47
2022-11-13T23:28:24.534Z,101624.66
2022-11-13T23:30:50.736Z,101620.03
2022-11-13T23:33:16.941Z,101611.44
2022-11-13T23:35:43.146Z,101614.84
2022-11-13T23:38:10.341Z,101611.44
2022-11-13T23:40:36.610Z,101611.06
2022-11-13T23:43:02.825Z,101598.63
2022-11-13T23:45:29.031Z,101599.22
2022-11-13T23:47:55.245Z,101598.03
2022-11-13T23:50:21.456Z,101592.22
2022-11-13T23:52:47.848Z,101596.63
2022-11-13T23:55:14.114Z,101589.25
2022-11-13T23:57:40.329Z,101586.22
